createdAt,value
2019-02-27T00:00:22.102Z,3.70
2019-02-27T00:02:50.909Z,3.27
2019-02-27T00:05:19.681Z,3.63
2019-02-27T00:07:48.536Z,4.00
2019-02-27T00:10:17.422Z,3.50
2019-02-27T00:12:46.256Z,4.00
2019-02-27T00:15:15.421Z,3.77
2019-02-27T00:17:44.328Z,3.07
2019-02-27T00:20:13.157Z,3.90
2019-02-27T00:22:42.028Z,4.00
2019-02-27T00:25:10.892Z,4.07
2019-02-27T00:27:39.759Z,3.57
2019-02-27T00:30:11.029Z,3.77
2019-02-27T00:32:39.899Z,4.70
2019-02-27T00:35:08.745Z,3.70
2019-02-27T00:37:37.606Z,3.97
2019-02-27T00:40:08.730Z,4.53
2019-02-27T00:42:37.659Z,3.60
2019-02-27T00:45:08.979Z,4.13
2019-02-27T00:47:37.850Z,4.23
2019-02-27T00:50:08.704Z,4.13
2019-02-27T00:52:37.649Z,4.07
2019-02-27T00:55:08.399Z,4.57
2019-02-27T00:57:37.277Z,4.50
2019-02-27T01:00:09.568Z,4.47
2019-02-27T01:02:38.412Z,4.30
2019-02-27T01:05:09.144Z,4.20
2019-02-27T01:07:38.207Z,4.30
2019-02-27T01:10:11.947Z,4.53
2019-02-27T01:12:40.362Z,4.63
2019-02-27T01:15:11.296Z,4.63
2019-02-27T01:17:40.132Z,4.60
2019-02-27T01:20:14.865Z,4.97
2019-02-27T01:22:44.387Z,4.80
2019-02-27T01:25:13.246Z,5.30
2019-02-27T01:27:42.111Z,5.33
2019-02-27T01:30:14.136Z,5.00
2019-02-27T01:32:43.274Z,4.30
2019-02-27T01:35:17.461Z,5.53
2019-02-27T01:37:43.889Z,5.23
2019-02-27T01:40:17.533Z,5.23
2019-02-27T01:42:45.055Z,4.63
2019-02-27T01:45:20.560Z,5.20
2019-02-27T01:47:47.040Z,5.00
2019-02-27T01:50:30.407Z,5.50
2019-02-27T01:52:59.245Z,5.00
2019-02-27T01:55:28.115Z,5.13
2019-02-27T01:57:57.012Z,5.03
2019-02-27T02:00:25.870Z,4.80
2019-02-27T02:02:54.739Z,4.47
2019-02-27T02:05:26.353Z,4.47
2019-02-27T02:07:54.212Z,4.87
2019-02-27T02:10:23.051Z,5.07
2019-02-27T02:13:01.683Z,5.07
2019-02-27T02:15:42.033Z,4.77
2019-02-27T02:18:36.060Z,5.23
2019-02-27T02:21:22.183Z,4.83
2019-02-27T02:23:59.742Z,5.70
2019-02-27T02:26:32.126Z,5.03
2019-02-27T02:29:39.977Z,4.93
2019-02-27T02:32:35.775Z,5.03
2019-02-27T02:35:26.989Z,5.30
2019-02-27T02:38:12.427Z,5.57
2019-02-27T02:40:56.466Z,5.03
2019-02-27T02:43:31.173Z,4.70
2019-02-27T02:46:14.928Z,5.27
2019-02-27T02:49:12.457Z,4.90
2019-02-27T02:51:50.241Z,5.20
2019-02-27T02:54:55.492Z,5.70
2019-02-27T02:57:36.195Z,5.33
2019-02-27T03:00:18.485Z,5.37
2019-02-27T03:02:57.518Z,6.40
2019-02-27T03:05:59.701Z,5.50
2019-02-27T03:08:47.040Z,5.63
2019-02-27T03:11:42.928Z,6.33
2019-02-27T03:14:31.362Z,5.77
2019-02-27T03:17:27.200Z,6.63
2019-02-27T03:20:17.705Z,6.70
2019-02-27T03:22:54.578Z,6.83
2019-02-27T03:25:40.138Z,6.00
2019-02-27T03:28:23.616Z,6.50
2019-02-27T03:31:04.438Z,6.47
2019-02-27T03:34:05.898Z,7.37
2019-02-27T03:36:56.256Z,7.10
2019-02-27T03:39:42.967Z,6.27
2019-02-27T03:42:14.725Z,6.50
2019-02-27T03:45:04.631Z,7.50
2019-02-27T03:48:06.629Z,7.47
2019-02-27T03:50:38.408Z,7.03
2019-02-27T03:53:18.770Z,6.83
2019-02-27T03:56:13.207Z,8.60
2019-02-27T03:58:44.946Z,6.90
2019-02-27T04:01:37.904Z,8.00
2019-02-27T04:04:34.625Z,8.53
2019-02-27T04:07:15.196Z,7.87
2019-02-27T04:09:44.004Z,7.90
2019-02-27T04:12:16.108Z,8.57
2019-02-27T04:14:43.485Z,7.67
2019-02-27T04:17:12.406Z,7.57
2019-02-27T04:19:41.446Z,7.63
2019-02-27T04:22:10.394Z,7.73
2019-02-27T04:24:39.316Z,7.83
2019-02-27T04:27:08.190Z,9.00
2019-02-27T04:29:40.806Z,8.70
2019-02-27T04:32:09.661Z,9.00
2019-02-27T04:34:38.084Z,8.47
2019-02-27T04:37:06.944Z,8.60
2019-02-27T04:39:38.210Z,9.70
2019-02-27T04:42:06.312Z,8.40
2019-02-27T04:44:35.942Z,8.93
2019-02-27T04:47:05.771Z,9.53
2019-02-27T04:49:34.827Z,8.53
2019-02-27T04:52:05.135Z,9.37
2019-02-27T04:54:35.090Z,8.90
2019-02-27T04:57:04.093Z,9.30
2019-02-27T04:59:32.929Z,9.90
2019-02-27T05:02:01.818Z,8.87
2019-02-27T05:04:34.890Z,9.47
2019-02-27T05:07:01.218Z,9.57
2019-02-27T05:09:33.549Z,9.93
2019-02-27T05:12:00.544Z,9.97
2019-02-27T05:14:29.361Z,9.17
2019-02-27T05:16:59.624Z,9.30
2019-02-27T05:19:28.668Z,10.80
2019-02-27T05:21:57.543Z,9.20
2019-02-27T05:24:26.347Z,10.57
2019-02-27T05:26:55.265Z,11.27
2019-02-27T05:29:24.148Z,10.20
2019-02-27T05:31:53.916Z,10.23
2019-02-27T05:34:22.899Z,9.33
2019-02-27T05:36:51.710Z,9.57
2019-02-27T05:39:20.553Z,9.73
2019-02-27T05:41:49.404Z,10.20
2019-02-27T05:44:21.456Z,11.03
2019-02-27T05:46:48.808Z,10.53
2019-02-27T05:49:17.707Z,9.77
2019-02-27T05:51:46.536Z,10.20
2019-02-27T05:54:15.497Z,11.10
2019-02-27T05:56:44.384Z,10.23
2019-02-27T05:59:13.216Z,10.57
2019-02-27T06:01:42.035Z,11.27
2019-02-27T06:04:13.919Z,10.17
2019-02-27T06:06:44.982Z,11.73
2019-02-27T06:09:13.201Z,11.13
2019-02-27T06:11:42.110Z,10.73
2019-02-27T06:14:10.964Z,11.13
2019-02-27T06:16:40.829Z,11.97
2019-02-27T06:19:09.842Z,11.83
2019-02-27T06:21:38.898Z,11.07
2019-02-27T06:24:11.614Z,10.63
2019-02-27T06:26:38.281Z,10.60
2019-02-27T06:29:07.116Z,10.40
2019-02-27T06:31:38.840Z,11.13
2019-02-27T06:34:06.552Z,12.13
2019-02-27T06:36:35.414Z,11.67
2019-02-27T06:39:05.794Z,10.90
2019-02-27T06:41:34.644Z,11.70
2019-02-27T06:44:03.518Z,11.77
2019-02-27T06:46:32.573Z,11.37
2019-02-27T06:49:01.381Z,11.77
2019-02-27T06:51:30.266Z,11.57
2019-02-27T06:53:59.196Z,11.53
2019-02-27T06:56:28.037Z,13.00
2019-02-27T06:58:56.826Z,13.03
2019-02-27T07:01:25.764Z,12.13
2019-02-27T07:03:54.561Z,11.90
2019-02-27T07:06:23.431Z,12.07
2019-02-27T07:08:52.252Z,11.77
2019-02-27T07:11:21.173Z,12.60
2019-02-27T07:13:49.990Z,12.60
2019-02-27T07:16:20.567Z,12.30
2019-02-27T07:18:49.379Z,11.97
2019-02-27T07:21:18.264Z,12.47
2019-02-27T07:23:47.144Z,12.97
2019-02-27T07:26:16.569Z,13.10
2019-02-27T07:28:45.695Z,13.93
2019-02-27T07:31:17.344Z,12.17
2019-02-27T07:33:45.188Z,12.97
2019-02-27T07:36:13.979Z,13.80
2019-02-27T07:38:42.876Z,13.00
2019-02-27T07:41:11.744Z,12.53
2019-02-27T07:43:40.584Z,12.03
2019-02-27T07:46:09.392Z,12.43
2019-02-27T07:48:39.284Z,13.63
2019-02-27T07:51:08.164Z,12.43
2019-02-27T07:53:36.974Z,12.37
2019-02-27T07:56:05.861Z,12.70
2019-02-27T07:58:34.677Z,12.43
2019-02-27T08:01:04.686Z,12.30
2019-02-27T08:03:33.696Z,12.10
2019-02-27T08:06:03.080Z,11.87
2019-02-27T08:08:32.011Z,12.40
2019-02-27T08:11:00.926Z,12.07
2019-02-27T08:13:30.310Z,11.70
2019-02-27T08:15:59.336Z,11.90
2019-02-27T08:18:30.516Z,12.10
2019-02-27T08:20:58.693Z,11.10
2019-02-27T08:23:27.534Z,11.07
2019-02-27T08:25:56.375Z,11.70
2019-02-27T08:28:25.235Z,12.47
2019-02-27T08:30:54.040Z,11.67
2019-02-27T08:33:22.885Z,11.47
2019-02-27T08:35:51.784Z,12.57
2019-02-27T08:38:20.631Z,11.73
2019-02-27T08:40:49.515Z,12.30
2019-02-27T08:43:18.452Z,11.60
2019-02-27T08:45:47.188Z,12.87
2019-02-27T08:48:17.522Z,11.53
2019-02-27T08:50:46.537Z,12.70
2019-02-27T08:53:15.383Z,11.40
2019-02-27T08:55:44.308Z,12.30
2019-02-27T08:58:13.177Z,11.30
2019-02-27T09:00:42.061Z,11.97
2019-02-27T09:03:20.017Z,12.67
2019-02-27T09:05:41.775Z,12.60
2019-02-27T09:08:10.809Z,12.17
2019-02-27T09:10:39.636Z,13.03
2019-02-27T09:13:08.507Z,12.77
2019-02-27T09:15:37.404Z,11.50
2019-02-27T09:18:06.304Z,11.50
2019-02-27T09:20:35.128Z,11.43
2019-02-27T09:23:04.037Z,11.70
2019-02-27T09:25:32.874Z,11.00
2019-02-27T09:28:03.473Z,10.90
2019-02-27T09:30:32.236Z,10.10
2019-02-27T09:33:01.117Z,10.63
2019-02-27T09:35:34.592Z,9.53
2019-02-27T09:38:00.581Z,10.17
2019-02-27T09:40:30.025Z,9.83
2019-02-27T09:42:58.949Z,9.57
2019-02-27T09:45:29.240Z,8.80
2019-02-27T09:47:59.895Z,9.37
2019-02-27T09:50:36.080Z,8.60
2019-02-27T09:53:05.387Z,7.83
2019-02-27T09:55:34.187Z,7.00
2019-02-27T09:58:03.184Z,7.17
2019-02-27T10:00:43.498Z,7.37
2019-02-27T10:03:12.447Z,7.67
2019-02-27T10:05:41.308Z,6.60
2019-02-27T10:08:11.283Z,7.17
2019-02-27T10:10:44.902Z,6.27
2019-02-27T10:13:10.829Z,7.00
2019-02-27T10:15:39.709Z,6.23
2019-02-27T10:18:08.568Z,6.50
2019-02-27T10:20:38.046Z,5.93
2019-02-27T10:23:07.203Z,6.30
2019-02-27T10:25:36.064Z,5.73
2019-02-27T10:28:05.043Z,5.83
2019-02-27T10:30:34.105Z,5.90
2019-02-27T10:33:03.470Z,6.10
2019-02-27T10:35:34.551Z,6.00
2019-02-27T10:38:03.126Z,5.83
2019-02-27T10:40:31.984Z,5.47
2019-02-27T10:43:00.786Z,5.57
2019-02-27T10:45:29.748Z,6.37
2019-02-27T10:47:58.611Z,6.00
2019-02-27T10:50:27.512Z,6.20
2019-02-27T10:52:56.409Z,6.37
2019-02-27T10:55:26.797Z,6.67
2019-02-27T10:57:55.937Z,6.00
2019-02-27T11:00:28.844Z,5.47
2019-02-27T11:02:58.029Z,6.63
2019-02-27T11:05:28.861Z,6.17
2019-02-27T11:07:57.731Z,6.23
2019-02-27T11:10:26.615Z,6.20
2019-02-27T11:12:55.521Z,5.57
2019-02-27T11:15:24.528Z,6.30
2019-02-27T11:17:53.503Z,6.47
2019-02-27T11:20:24.515Z,6.47
2019-02-27T11:22:52.977Z,6.00
2019-02-27T11:25:29.465Z,5.73
2019-02-27T11:27:58.288Z,6.53
2019-02-27T11:30:36.885Z,6.37
2019-02-27T11:33:05.913Z,6.10
2019-02-27T11:35:34.751Z,6.63
2019-02-27T11:38:03.631Z,6.50
2019-02-27T11:40:32.477Z,6.13
2019-02-27T11:43:01.306Z,6.50
2019-02-27T11:45:31.798Z,6.03
2019-02-27T11:48:00.677Z,5.33
2019-02-27T11:50:29.557Z,5.67
2019-02-27T11:53:01.531Z,5.70
2019-02-27T11:55:28.936Z,5.80
2019-02-27T11:57:57.797Z,5.30
2019-02-27T12:00:31.597Z,5.73
2019-02-27T12:03:00.484Z,6.00
2019-02-27T12:05:33.695Z,4.90
2019-02-27T12:07:59.804Z,6.33
2019-02-27T12:10:31.270Z,6.17
2019-02-27T12:13:01.328Z,5.07
2019-02-27T12:15:30.741Z,5.27
2019-02-27T12:18:01.834Z,5.30
2019-02-27T12:20:30.118Z,5.33
2019-02-27T12:22:59.094Z,5.47
2019-02-27T12:25:29.953Z,5.43
2019-02-27T12:27:58.442Z,5.23
2019-02-27T12:30:31.473Z,5.70
2019-02-27T12:33:00.324Z,8.10
2019-02-27T12:35:31.439Z,5.63
2019-02-27T12:38:00.294Z,5.87
2019-02-27T12:40:29.164Z,5.07
2019-02-27T12:42:57.988Z,4.87
2019-02-27T12:45:29.787Z,5.70
2019-02-27T12:47:58.988Z,5.93
2019-02-27T12:50:31.449Z,6.10
2019-02-27T12:53:00.555Z,5.80
2019-02-27T12:55:29.404Z,5.33
2019-02-27T12:57:58.196Z,5.73
2019-02-27T13:00:30.529Z,5.83
2019-02-27T13:02:59.534Z,5.70
2019-02-27T13:05:29.061Z,5.47
2019-02-27T13:07:58.235Z,5.53
2019-02-27T13:10:33.119Z,5.17
2019-02-27T13:12:58.397Z,5.80
2019-02-27T13:15:30.792Z,5.90
2019-02-27T13:17:59.638Z,5.53
2019-02-27T13:20:29.619Z,5.33
2019-02-27T13:23:01.410Z,5.43
2019-02-27T13:25:30.320Z,6.50
2019-02-27T13:27:59.477Z,5.43
2019-02-27T13:30:28.913Z,5.83
2019-02-27T13:33:00.778Z,5.30
2019-02-27T13:35:29.095Z,5.47
2019-02-27T13:37:58.336Z,5.63
2019-02-27T13:40:28.493Z,4.57
2019-02-27T13:42:57.466Z,5.30
2019-02-27T13:45:27.434Z,5.67
2019-02-27T13:47:56.308Z,5.33
2019-02-27T13:50:26.822Z,5.03
2019-02-27T13:52:56.058Z,5.57
2019-02-27T13:55:25.024Z,5.63
2019-02-27T13:57:58.778Z,5.40
2019-02-27T14:00:30.034Z,5.17
2019-02-27T14:02:58.870Z,5.13
2019-02-27T14:05:29.383Z,5.23
2019-02-27T14:07:58.777Z,4.43
2019-02-27T14:10:32.392Z,4.53
2019-02-27T14:13:01.240Z,4.30
2019-02-27T14:15:31.648Z,5.37
2019-02-27T14:18:01.160Z,5.30
2019-02-27T14:20:30.227Z,4.97
2019-02-27T14:22:59.184Z,5.50
2019-02-27T14:25:33.181Z,5.47
2019-02-27T14:28:02.402Z,5.13
2019-02-27T14:30:40.416Z,5.60
2019-02-27T14:33:11.048Z,6.27
2019-02-27T14:35:39.750Z,4.93
2019-02-27T14:38:08.636Z,5.53
2019-02-27T14:40:40.936Z,5.50
2019-02-27T14:43:08.107Z,5.30
2019-02-27T14:45:39.572Z,5.53
2019-02-27T14:48:07.492Z,4.67
2019-02-27T14:50:36.363Z,4.93
2019-02-27T14:53:05.396Z,5.30
2019-02-27T14:55:36.130Z,4.67
2019-02-27T14:58:04.765Z,5.57
2019-02-27T15:00:39.579Z,5.40
2019-02-27T15:03:05.868Z,5.90
2019-02-27T15:05:36.639Z,5.93
2019-02-27T15:08:05.194Z,5.30
2019-02-27T15:10:34.056Z,5.00
2019-02-27T15:13:02.902Z,5.63
2019-02-27T15:15:32.910Z,6.70
2019-02-27T15:18:01.900Z,5.87
2019-02-27T15:20:31.334Z,5.50
2019-02-27T15:23:00.329Z,5.77
2019-02-27T15:25:29.249Z,5.03
2019-02-27T15:27:59.980Z,4.87
2019-02-27T15:30:30.653Z,4.33
2019-02-27T15:33:03.707Z,4.70
2019-02-27T15:35:30.156Z,4.73
2019-02-27T15:37:59.108Z,4.57
2019-02-27T15:40:29.999Z,4.40
2019-02-27T15:42:59.501Z,4.50
2019-02-27T15:45:31.124Z,4.43
2019-02-27T15:48:00.045Z,4.23
2019-02-27T15:50:33.503Z,4.00
2019-02-27T15:53:02.374Z,3.90
2019-02-27T15:55:34.314Z,4.60
2019-02-27T15:58:01.822Z,4.10
2019-02-27T16:00:30.956Z,3.40
2019-02-27T16:02:59.823Z,3.47
2019-02-27T16:05:31.403Z,4.37
2019-02-27T16:07:59.215Z,3.50
2019-02-27T16:10:28.900Z,3.27
2019-02-27T16:13:01.078Z,3.20
2019-02-27T16:15:28.320Z,3.37
2019-02-27T16:17:57.237Z,3.20
2019-02-27T16:20:27.983Z,3.37
2019-02-27T16:22:56.805Z,3.20
2019-02-27T16:25:26.936Z,3.87
2019-02-27T16:27:55.784Z,4.30
2019-02-27T16:30:32.543Z,4.53
2019-02-27T16:32:59.713Z,4.93
2019-02-27T16:35:28.592Z,4.13
2019-02-27T16:37:57.957Z,3.43
2019-02-27T16:40:28.154Z,3.13
2019-02-27T16:42:57.008Z,2.87
2019-02-27T16:45:37.339Z,3.03
2019-02-27T16:48:06.548Z,3.10
2019-02-27T16:50:35.419Z,3.23
2019-02-27T16:53:04.377Z,3.43
2019-02-27T16:55:36.119Z,2.93
2019-02-27T16:58:03.659Z,3.10
2019-02-27T17:00:34.774Z,3.03
2019-02-27T17:03:03.617Z,3.20
2019-02-27T17:05:32.444Z,2.50
2019-02-27T17:08:02.681Z,2.63
2019-02-27T17:10:36.742Z,2.90
2019-02-27T17:13:06.144Z,2.80
2019-02-27T17:15:36.294Z,2.80
2019-02-27T17:18:05.902Z,2.53
2019-02-27T17:20:34.866Z,2.80
2019-02-27T17:23:07.534Z,2.53
2019-02-27T17:25:34.172Z,2.83
2019-02-27T17:28:03.040Z,3.10
2019-02-27T17:30:37.913Z,3.00
2019-02-27T17:33:07.036Z,2.80
2019-02-27T17:35:35.846Z,2.60
2019-02-27T17:38:04.667Z,3.13
2019-02-27T17:40:36.479Z,3.20
2019-02-27T17:43:04.099Z,2.70
2019-02-27T17:45:34.699Z,3.23
2019-02-27T17:48:03.708Z,3.60
2019-02-27T17:50:32.585Z,3.40
2019-02-27T17:53:01.609Z,2.97
2019-02-27T17:55:30.574Z,2.90
2019-02-27T17:57:59.481Z,2.80
2019-02-27T18:00:33.517Z,3.27
2019-02-27T18:03:04.961Z,2.90
2019-02-27T18:05:32.965Z,3.17
2019-02-27T18:08:03.394Z,2.83
2019-02-27T18:10:37.130Z,3.27
2019-02-27T18:13:03.271Z,3.13
2019-02-27T18:15:32.083Z,3.50
2019-02-27T18:18:00.948Z,3.70
2019-02-27T18:20:31.885Z,3.67
2019-02-27T18:23:00.377Z,3.13
2019-02-27T18:25:29.186Z,3.80
2019-02-27T18:27:59.584Z,3.60
2019-02-27T18:30:28.935Z,3.53
2019-02-27T18:32:57.836Z,3.27
2019-02-27T18:35:29.663Z,3.30
2019-02-27T18:37:57.195Z,3.77
2019-02-27T18:40:26.252Z,3.53
2019-02-27T18:42:56.542Z,3.60
2019-02-27T18:45:29.412Z,3.70
2019-02-27T18:47:58.905Z,3.83
2019-02-27T18:50:28.035Z,3.20
2019-02-27T18:52:56.979Z,3.30
2019-02-27T18:55:29.388Z,3.90
2019-02-27T18:57:56.348Z,3.60
2019-02-27T19:00:27.565Z,4.00
2019-02-27T19:03:05.269Z,4.20
2019-02-27T19:05:34.236Z,3.83
2019-02-27T19:08:03.317Z,3.67
2019-02-27T19:10:32.278Z,3.93
2019-02-27T19:13:01.213Z,4.63
2019-02-27T19:15:30.159Z,4.30
2019-02-27T19:17:59.275Z,3.70
2019-02-27T19:20:44.886Z,3.90
2019-02-27T19:23:17.266Z,4.40
2019-02-27T19:25:44.498Z,4.07
2019-02-27T19:28:13.563Z,3.73
2019-02-27T19:30:42.709Z,4.23
2019-02-27T19:33:11.534Z,4.20
2019-02-27T19:35:40.469Z,3.87
2019-02-27T19:38:12.560Z,4.40
2019-02-27T19:40:40.233Z,4.20
2019-02-27T19:43:09.171Z,4.23
2019-02-27T19:45:38.235Z,4.63
2019-02-27T19:48:07.512Z,4.27
2019-02-27T19:50:36.427Z,4.37
2019-02-27T19:53:06.979Z,4.10
2019-02-27T19:55:36.282Z,3.63
2019-02-27T19:58:09.779Z,3.80
2019-02-27T20:00:47.665Z,3.43
2019-02-27T20:03:09.406Z,4.47
2019-02-27T20:05:38.332Z,4.53
2019-02-27T20:08:10.169Z,3.70
2019-02-27T20:10:38.049Z,3.23
2019-02-27T20:13:07.332Z,4.23
2019-02-27T20:15:36.451Z,3.43
2019-02-27T20:18:08.421Z,3.20
2019-02-27T20:20:40.065Z,3.87
2019-02-27T20:23:07.265Z,2.83
2019-02-27T20:25:36.599Z,2.97
2019-02-27T20:28:05.678Z,2.53
2019-02-27T20:30:34.753Z,3.13
2019-02-27T20:33:03.969Z,2.27
2019-02-27T20:35:32.845Z,2.57
2019-02-27T20:38:02.043Z,2.40
2019-02-27T20:40:34.229Z,2.30
2019-02-27T20:43:02.174Z,2.37
2019-02-27T20:45:31.030Z,3.10
2019-02-27T20:48:01.842Z,2.40
2019-02-27T20:50:48.707Z,1.77
2019-02-27T20:53:20.948Z,1.50
2019-02-27T20:55:48.273Z,1.70
2019-02-27T20:58:17.529Z,1.50
2019-02-27T21:00:46.688Z,1.53
2019-02-27T21:03:15.715Z,1.77
2019-02-27T21:05:46.140Z,1.80
2019-02-27T21:08:14.964Z,1.97
2019-02-27T21:10:43.777Z,1.93
2019-02-27T21:13:16.034Z,1.80
2019-02-27T21:15:43.265Z,1.53
2019-02-27T21:18:12.174Z,1.67
2019-02-27T21:20:42.158Z,1.90
2019-02-27T21:23:11.589Z,1.53
2019-02-27T21:25:40.492Z,1.83
2019-02-27T21:28:09.449Z,1.60
2019-02-27T21:30:38.275Z,1.80
2019-02-27T21:33:08.251Z,1.70
2019-02-27T21:35:37.607Z,1.83
2019-02-27T21:38:06.437Z,1.40
2019-02-27T21:40:36.234Z,1.70
2019-02-27T21:43:05.752Z,1.67
2019-02-27T21:45:37.265Z,1.80
2019-02-27T21:48:05.139Z,1.87
2019-02-27T21:50:34.002Z,1.90
2019-02-27T21:53:02.900Z,1.60
2019-02-27T21:55:31.740Z,2.03
2019-02-27T21:58:00.565Z,1.83
2019-02-27T22:00:30.620Z,2.50
2019-02-27T22:03:03.708Z,2.13
2019-02-27T22:05:30.523Z,1.90
2019-02-27T22:07:59.374Z,2.00
2019-02-27T22:10:28.262Z,2.00
2019-02-27T22:12:57.136Z,2.90
2019-02-27T22:15:30.329Z,2.53
2019-02-27T22:17:59.159Z,2.53
2019-02-27T22:20:28.180Z,2.40
2019-02-27T22:22:56.997Z,2.30
2019-02-27T22:25:30.218Z,2.47
2019-02-27T22:27:58.390Z,2.30
2019-02-27T22:30:26.837Z,2.63
2019-02-27T22:32:55.653Z,2.13
2019-02-27T22:35:24.508Z,2.27
2019-02-27T22:37:53.383Z,2.50
2019-02-27T22:40:23.078Z,2.53
2019-02-27T22:42:51.957Z,3.13
2019-02-27T22:45:21.286Z,2.50
2019-02-27T22:47:54.015Z,2.37
2019-02-27T22:50:21.790Z,2.47
2019-02-27T22:52:54.252Z,2.00
2019-02-27T22:55:21.067Z,1.80
2019-02-27T22:57:49.952Z,2.30
2019-02-27T23:00:31.907Z,2.10
2019-02-27T23:03:00.793Z,2.10
2019-02-27T23:05:29.601Z,2.63
2019-02-27T23:07:58.508Z,2.00
2019-02-27T23:10:28.134Z,1.90
2019-02-27T23:12:57.905Z,2.03
2019-02-27T23:15:26.708Z,1.93
2019-02-27T23:17:55.568Z,3.10
2019-02-27T23:20:24.418Z,2.60
2019-02-27T23:22:53.259Z,3.20
2019-02-27T23:25:22.139Z,2.00
2019-02-27T23:27:51.032Z,2.37
2019-02-27T23:30:19.804Z,2.00
2019-02-27T23:32:48.733Z,1.80
2019-02-27T23:35:17.608Z,2.30
2019-02-27T23:37:46.504Z,2.17
2019-02-27T23:40:17.587Z,1.93
2019-02-27T23:42:45.886Z,2.10
2019-02-27T23:45:14.949Z,1.67
2019-02-27T23:47:43.744Z,1.93
2019-02-27T23:50:13.871Z,1.90
2019-02-27T23:52:42.779Z,1.87
2019-02-27T23:55:11.783Z,2.07
2019-02-27T23:57:40.688Z,2.30
